createdAt,value
2022-10-12T00:01:28.475Z,77.16
2022-10-12T00:03:56.307Z,77.50
2022-10-12T00:06:25.083Z,75.96
2022-10-12T00:08:54.474Z,75.04
2022-10-12T00:11:24.062Z,75.27
2022-10-12T00:13:53.901Z,75.03
2022-10-12T00:16:22.969Z,74.66
2022-10-12T00:18:52.345Z,74.66
2022-10-12T00:21:21.203Z,75.06
2022-10-12T00:23:49.650Z,74.76
2022-10-12T00:26:19.469Z,74.53
2022-10-12T00:28:48.419Z,75.60
2022-10-12T00:31:18.927Z,75.44
2022-10-12T00:33:47.763Z,76.35
2022-10-12T00:36:17.040Z,77.14
2022-10-12T00:38:44.767Z,78.32
2022-10-12T00:41:13.224Z,78.21
2022-10-12T00:43:42.624Z,77.04
2022-10-12T00:46:15.807Z,77.74
2022-10-12T00:48:46.076Z,78.71
2022-10-12T00:51:14.178Z,79.21
2022-10-12T00:53:44.773Z,79.75
2022-10-12T00:56:15.435Z,79.82
2022-10-12T00:58:43.195Z,79.72
2022-10-12T01:01:11.074Z,79.46
2022-10-12T01:03:38.975Z,79.16
2022-10-12T01:06:09.325Z,78.46
2022-10-12T01:08:38.018Z,77.74
2022-10-12T01:11:06.358Z,77.81
2022-10-12T01:13:34.603Z,77.55
2022-10-12T01:16:06.876Z,78.28
2022-10-12T01:18:41.710Z,77.06
2022-10-12T01:21:17.300Z,76.24
2022-10-12T01:24:22.661Z,75.96
2022-10-12T01:27:31.149Z,75.44
2022-10-12T01:30:30.500Z,75.55
2022-10-12T01:33:15.381Z,75.58
2022-10-12T01:35:54.576Z,75.04
2022-10-12T01:38:39.279Z,74.90
2022-10-12T01:41:10.645Z,75.09
2022-10-12T01:43:40.562Z,75.20
2022-10-12T01:46:44.183Z,75.57
2022-10-12T01:49:12.580Z,75.68
2022-10-12T01:51:54.238Z,75.70
2022-10-12T01:54:29.348Z,76.46
2022-10-12T01:57:00.578Z,77.08
2022-10-12T01:59:35.289Z,77.09
2022-10-12T02:02:11.573Z,77.51
2022-10-12T02:04:43.454Z,78.60
2022-10-12T02:07:15.097Z,79.13
2022-10-12T02:09:42.951Z,79.11
2022-10-12T02:12:15.061Z,78.91
2022-10-12T02:14:46.316Z,79.37
2022-10-12T02:17:17.863Z,79.63
2022-10-12T02:19:48.980Z,79.66
2022-10-12T02:22:17.934Z,79.12
2022-10-12T02:24:47.917Z,78.63
2022-10-12T02:27:16.828Z,77.83
2022-10-12T02:29:47.290Z,78.13
2022-10-12T02:32:20.963Z,78.63
2022-10-12T02:34:52.554Z,77.97
2022-10-12T02:37:28.163Z,77.40
2022-10-12T02:39:58.869Z,77.80
2022-10-12T02:42:32.160Z,78.69
2022-10-12T02:45:06.268Z,78.80
2022-10-12T02:47:36.469Z,78.18
2022-10-12T02:50:05.181Z,78.36
2022-10-12T02:52:33.633Z,78.74
2022-10-12T02:55:01.610Z,78.65
2022-10-12T02:57:29.418Z,78.76
2022-10-12T02:59:57.165Z,78.24
2022-10-12T03:02:24.975Z,78.16
2022-10-12T03:04:54.923Z,78.12
2022-10-12T03:07:22.677Z,78.01
2022-10-12T03:09:51.127Z,77.33
2022-10-12T03:12:18.935Z,77.41
2022-10-12T03:14:46.701Z,77.76
2022-10-12T03:17:14.453Z,77.65
2022-10-12T03:19:42.249Z,77.53
2022-10-12T03:22:11.341Z,77.73
2022-10-12T03:24:39.209Z,79.01
2022-10-12T03:27:06.916Z,79.93
2022-10-12T03:29:34.659Z,80.38
2022-10-12T03:32:02.437Z,80.82
2022-10-12T03:34:30.147Z,80.67
2022-10-12T03:36:58.074Z,80.61
2022-10-12T03:39:27.184Z,81.18
2022-10-12T03:41:54.955Z,81.02
2022-10-12T03:44:22.695Z,81.32
2022-10-12T03:46:50.395Z,81.42
2022-10-12T03:49:18.116Z,81.41
2022-10-12T03:51:45.858Z,80.81
2022-10-12T03:54:13.676Z,80.51
2022-10-12T03:56:42.778Z,79.96
2022-10-12T03:59:10.495Z,79.59
2022-10-12T04:01:38.356Z,79.39
2022-10-12T04:04:06.346Z,78.84
2022-10-12T04:06:34.096Z,78.49
2022-10-12T04:09:01.825Z,79.19
2022-10-12T04:11:29.617Z,79.83
2022-10-12T04:13:58.880Z,80.12
2022-10-12T04:16:30.255Z,79.61
2022-10-12T04:18:58.927Z,79.23
2022-10-12T04:21:26.689Z,79.36
2022-10-12T04:23:54.490Z,79.36
2022-10-12T04:26:22.270Z,78.60
2022-10-12T04:28:50.065Z,78.26
2022-10-12T04:31:19.202Z,77.91
2022-10-12T04:33:47.595Z,78.72
2022-10-12T04:36:15.329Z,78.87
2022-10-12T04:38:43.108Z,79.31
2022-10-12T04:41:10.838Z,79.52
2022-10-12T04:43:38.578Z,79.18
2022-10-12T04:46:06.417Z,79.03
2022-10-12T04:48:35.689Z,79.39
2022-10-12T04:51:03.525Z,79.64
2022-10-12T04:53:31.558Z,80.30
2022-10-12T04:55:59.302Z,80.62
2022-10-12T04:58:27.060Z,80.82
2022-10-12T05:00:54.797Z,80.43
2022-10-12T05:03:22.545Z,80.39
2022-10-12T05:05:51.756Z,80.40
2022-10-12T05:08:19.520Z,80.23
2022-10-12T05:10:47.279Z,79.10
2022-10-12T05:13:15.162Z,78.94
2022-10-12T05:15:43.478Z,78.72
2022-10-12T05:18:11.591Z,78.68
2022-10-12T05:20:39.461Z,78.82
2022-10-12T05:23:08.590Z,77.87
2022-10-12T05:25:36.579Z,77.16
2022-10-12T05:28:04.458Z,77.30
2022-10-12T05:30:32.214Z,77.02
2022-10-12T05:33:00.003Z,76.08
2022-10-12T05:35:27.997Z,75.71
2022-10-12T05:37:55.771Z,76.21
2022-10-12T05:40:24.902Z,75.87
2022-10-12T05:42:52.674Z,75.37
2022-10-12T05:45:20.422Z,75.90
2022-10-12T05:47:48.189Z,76.34
2022-10-12T05:50:16.038Z,76.61
2022-10-12T05:52:43.801Z,76.69
2022-10-12T05:55:11.591Z,76.98
2022-10-12T05:57:40.829Z,76.52
2022-10-12T06:00:10.269Z,76.84
2022-10-12T06:02:38.325Z,77.54
2022-10-12T06:05:07.139Z,78.30
2022-10-12T06:07:34.915Z,77.82
2022-10-12T06:10:02.707Z,77.32
2022-10-12T06:12:30.461Z,77.32
2022-10-12T06:14:59.628Z,77.61
2022-10-12T06:17:27.474Z,77.35
2022-10-12T06:19:55.327Z,77.38
2022-10-12T06:22:23.090Z,78.24
2022-10-12T06:24:50.905Z,78.80
2022-10-12T06:27:19.941Z,79.33
2022-10-12T06:29:47.770Z,78.75
2022-10-12T06:32:16.921Z,78.92
2022-10-12T06:34:45.558Z,78.34
2022-10-12T06:37:37.158Z,77.92
2022-10-12T06:40:02.186Z,77.07
2022-10-12T06:42:30.650Z,76.35
2022-10-12T06:44:58.455Z,75.61
2022-10-12T06:47:27.528Z,75.19
2022-10-12T06:49:55.277Z,74.85
2022-10-12T06:52:23.089Z,74.64
2022-10-12T06:54:50.820Z,74.58
2022-10-12T06:57:18.603Z,74.60
2022-10-12T06:59:46.299Z,74.21
2022-10-12T07:02:14.066Z,73.40
2022-10-12T07:04:43.192Z,72.86
2022-10-12T07:07:11.080Z,72.34
2022-10-12T07:09:38.858Z,71.89
2022-10-12T07:12:07.002Z,71.40
2022-10-12T07:14:34.843Z,70.67
2022-10-12T07:17:02.642Z,70.79
2022-10-12T07:19:30.365Z,70.26
2022-10-12T07:21:59.489Z,69.65
2022-10-12T07:24:35.586Z,69.04
2022-10-12T07:27:04.298Z,68.60
2022-10-12T07:29:32.613Z,68.43
2022-10-12T07:32:00.654Z,68.50
2022-10-12T07:34:28.748Z,68.26
2022-10-12T07:36:59.604Z,67.64
2022-10-12T07:39:29.231Z,67.38
2022-10-12T07:41:57.275Z,66.75
2022-10-12T07:44:25.469Z,66.70
2022-10-12T07:46:53.619Z,66.71
2022-10-12T07:49:22.828Z,65.68
2022-10-12T07:51:50.593Z,64.75
2022-10-12T07:54:21.760Z,64.34
2022-10-12T07:56:52.706Z,63.85
2022-10-12T07:59:20.465Z,63.12
2022-10-12T08:01:48.280Z,62.36
2022-10-12T08:04:16.103Z,62.09
2022-10-12T08:06:44.589Z,62.32
2022-10-12T08:09:12.345Z,62.32
2022-10-12T08:11:41.102Z,61.41
2022-10-12T08:14:14.285Z,61.13
2022-10-12T08:16:42.713Z,60.90
2022-10-12T08:19:10.502Z,60.25
2022-10-12T08:21:38.321Z,59.55
2022-10-12T08:24:06.757Z,59.30
2022-10-12T08:26:34.505Z,58.54
2022-10-12T08:29:02.857Z,58.26
2022-10-12T08:31:32.109Z,58.28
2022-10-12T08:34:00.117Z,57.68
2022-10-12T08:36:27.937Z,56.58
2022-10-12T08:38:56.345Z,56.47
2022-10-12T08:41:46.010Z,56.37
2022-10-12T08:44:34.453Z,54.84
2022-10-12T08:47:10.598Z,54.42
2022-10-12T08:49:40.167Z,54.10
2022-10-12T08:52:16.908Z,53.39
2022-10-12T08:54:46.193Z,52.71
2022-10-12T08:57:17.529Z,53.70
2022-10-12T08:59:45.708Z,52.68
2022-10-12T09:02:31.144Z,52.34
2022-10-12T09:05:01.392Z,52.06
2022-10-12T09:07:31.589Z,51.15
2022-10-12T09:10:09.890Z,50.99
2022-10-12T09:12:45.282Z,50.48
2022-10-12T09:15:17.542Z,50.19
2022-10-12T09:17:49.082Z,49.85
2022-10-12T09:20:20.516Z,50.70
2022-10-12T09:22:50.457Z,50.88
2022-10-12T09:25:19.515Z,50.18
2022-10-12T09:27:48.115Z,49.82
2022-10-12T09:30:17.828Z,48.58
2022-10-12T09:33:00.760Z,49.09
2022-10-12T09:35:28.610Z,48.53
2022-10-12T09:37:56.780Z,49.22
2022-10-12T09:40:26.974Z,47.68
2022-10-12T09:42:55.805Z,47.47
2022-10-12T09:45:24.272Z,47.42
2022-10-12T09:48:15.286Z,47.87
2022-10-12T09:50:45.436Z,47.17
2022-10-12T09:53:15.268Z,46.29
2022-10-12T09:55:53.129Z,44.94
2022-10-12T09:58:21.762Z,44.40
2022-10-12T10:01:28.446Z,44.33
2022-10-12T10:04:13.766Z,43.24
2022-10-12T10:06:43.102Z,42.98
2022-10-12T10:09:28.162Z,43.93
2022-10-12T10:11:56.149Z,42.17
2022-10-12T10:14:23.970Z,41.88
2022-10-12T10:16:54.504Z,43.66
2022-10-12T10:19:26.349Z,42.98
2022-10-12T10:21:54.811Z,43.80
2022-10-12T10:24:27.802Z,43.84
2022-10-12T10:26:58.327Z,43.92
2022-10-12T10:29:36.308Z,42.66
2022-10-12T10:32:26.874Z,43.54
2022-10-12T10:35:07.261Z,42.87
2022-10-12T10:37:35.304Z,42.06
2022-10-12T10:40:03.936Z,42.03
2022-10-12T10:42:33.084Z,40.94
2022-10-12T10:45:02.612Z,40.23
2022-10-12T10:47:31.149Z,37.99
2022-10-12T10:50:00.292Z,37.51
2022-10-12T10:52:31.439Z,36.32
2022-10-12T10:55:18.485Z,37.54
2022-10-12T10:57:49.273Z,37.64
2022-10-12T11:00:37.863Z,38.20
2022-10-12T11:03:12.527Z,39.45
2022-10-12T11:05:44.592Z,38.16
2022-10-12T11:08:17.485Z,37.48
2022-10-12T11:10:49.497Z,38.62
2022-10-12T11:13:19.251Z,40.81
2022-10-12T11:15:51.050Z,40.33
2022-10-12T11:18:22.821Z,40.51
2022-10-12T11:20:53.896Z,40.56
2022-10-12T11:23:37.808Z,40.74
2022-10-12T11:26:11.300Z,40.50
2022-10-12T11:28:40.366Z,40.69
2022-10-12T11:31:17.218Z,39.63
2022-10-12T11:33:45.933Z,39.41
2022-10-12T11:36:16.055Z,40.14
2022-10-12T11:38:47.183Z,39.66
2022-10-12T11:44:07.112Z,41.46
2022-10-12T11:46:36.973Z,41.19
2022-10-12T11:49:10.079Z,41.67
2022-10-12T11:51:37.911Z,41.39
2022-10-12T11:54:10.185Z,40.76
2022-10-12T11:56:40.730Z,41.23
2022-10-12T11:59:15.792Z,41.33
2022-10-12T12:01:58.913Z,42.24
2022-10-12T12:04:42.748Z,41.01
2022-10-12T12:07:40.422Z,41.96
2022-10-12T12:10:41.414Z,41.13
2022-10-12T12:13:20.464Z,42.57
2022-10-12T12:16:30.990Z,43.71
2022-10-12T12:19:41.063Z,42.51
2022-10-12T12:22:31.580Z,43.70
2022-10-12T12:25:17.050Z,43.12
2022-10-12T12:27:47.112Z,43.56
2022-10-12T12:30:29.850Z,43.04
2022-10-12T12:32:59.038Z,43.07
2022-10-12T12:35:32.677Z,44.26
2022-10-12T12:38:22.717Z,44.51
2022-10-12T12:41:08.965Z,44.36
2022-10-12T12:43:58.526Z,43.04
2022-10-12T12:47:43.485Z,42.07
2022-10-12T12:50:01.845Z,42.84
2022-10-12T12:52:30.967Z,42.40
2022-10-12T12:55:36.589Z,42.57
2022-10-12T12:58:23.957Z,41.26
2022-10-12T13:01:00.749Z,41.20
2022-10-12T13:03:45.259Z,41.55
2022-10-12T13:06:55.732Z,41.29
2022-10-12T13:09:43.420Z,41.91
2022-10-12T13:12:22.986Z,42.96
2022-10-12T13:15:08.130Z,42.87
2022-10-12T13:17:47.969Z,41.80
2022-10-12T13:20:18.861Z,42.46
2022-10-12T13:22:50.300Z,42.45
2022-10-12T13:25:28.256Z,42.54
2022-10-12T13:27:56.094Z,43.19
2022-10-12T13:30:29.970Z,44.34
2022-10-12T13:33:02.965Z,44.67
2022-10-12T13:35:33.400Z,43.86
2022-10-12T13:38:05.142Z,44.96
2022-10-12T13:40:36.969Z,44.94
2022-10-12T13:43:28.305Z,43.88
2022-10-12T13:45:56.159Z,43.67
2022-10-12T13:48:46.329Z,44.36
2022-10-12T13:51:24.228Z,45.08
2022-10-12T13:53:53.509Z,45.85
2022-10-12T13:56:24.036Z,45.85
2022-10-12T13:58:53.191Z,45.30
2022-10-12T14:01:21.096Z,44.30
2022-10-12T14:03:48.850Z,43.78
2022-10-12T14:06:28.489Z,43.99
2022-10-12T14:08:58.907Z,43.02
2022-10-12T14:11:27.719Z,43.26
2022-10-12T14:13:55.587Z,43.37
2022-10-12T14:16:23.380Z,43.01
2022-10-12T14:18:51.657Z,42.56
2022-10-12T14:21:23.627Z,40.94
2022-10-12T14:23:53.865Z,41.20
2022-10-12T14:26:29.906Z,41.79
2022-10-12T14:28:58.960Z,40.63
2022-10-12T14:31:52.098Z,38.36
2022-10-12T14:34:35.305Z,39.80
2022-10-12T14:37:04.489Z,42.42
2022-10-12T14:39:32.416Z,42.40
2022-10-12T14:42:04.089Z,42.28
2022-10-12T14:44:43.086Z,42.28
2022-10-12T14:47:17.180Z,43.56
2022-10-12T14:49:46.766Z,42.65
2022-10-12T14:52:19.110Z,44.19
2022-10-12T14:54:50.932Z,43.37
2022-10-12T14:57:20.702Z,44.05
2022-10-12T14:59:48.947Z,44.84
2022-10-12T15:02:18.716Z,44.53
2022-10-12T15:04:47.165Z,45.60
2022-10-12T15:07:20.186Z,46.42
2022-10-12T15:09:48.461Z,45.43
2022-10-12T15:12:17.740Z,44.97
2022-10-12T15:14:47.429Z,44.74
2022-10-12T15:17:16.229Z,44.53
2022-10-12T15:19:45.234Z,44.71
2022-10-12T15:22:16.123Z,44.77
2022-10-12T15:24:43.909Z,45.73
2022-10-12T15:27:11.817Z,46.31
2022-10-12T15:29:40.020Z,46.03
2022-10-12T15:32:11.180Z,46.24
2022-10-12T15:34:39.066Z,47.46
2022-10-12T15:37:09.246Z,47.89
2022-10-12T15:39:37.327Z,48.70
2022-10-12T15:42:05.250Z,49.59
2022-10-12T15:44:33.074Z,49.18
2022-10-12T15:47:00.869Z,48.74
2022-10-12T15:49:29.994Z,49.52
2022-10-12T15:51:57.896Z,49.96
2022-10-12T15:54:25.622Z,50.78
2022-10-12T15:56:53.378Z,50.99
2022-10-12T15:59:21.246Z,51.43
2022-10-12T16:01:49.005Z,52.18
2022-10-12T16:04:16.828Z,52.25
2022-10-12T16:06:45.959Z,53.08
2022-10-12T16:09:13.737Z,53.58
2022-10-12T16:11:41.579Z,54.12
2022-10-12T16:14:10.910Z,54.42
2022-10-12T16:16:38.697Z,54.24
2022-10-12T16:19:06.444Z,54.19
2022-10-12T16:21:34.161Z,55.42
2022-10-12T16:24:03.529Z,55.28
2022-10-12T16:26:31.292Z,55.39
2022-10-12T16:28:59.100Z,55.53
2022-10-12T16:31:26.935Z,54.43
2022-10-12T16:33:54.650Z,53.52
2022-10-12T16:36:22.436Z,53.66
2022-10-12T16:38:50.155Z,53.25
2022-10-12T16:41:19.279Z,52.94
2022-10-12T16:43:47.116Z,53.09
2022-10-12T16:46:14.889Z,53.65
2022-10-12T16:48:43.930Z,54.16
2022-10-12T16:51:13.114Z,54.81
2022-10-12T16:53:42.234Z,55.59
2022-10-12T16:56:10.091Z,55.62
2022-10-12T16:58:39.213Z,56.83
2022-10-12T17:01:11.280Z,57.41
2022-10-12T17:03:39.146Z,57.86
2022-10-12T17:06:07.510Z,58.73
2022-10-12T17:08:38.764Z,58.64
2022-10-12T17:11:07.981Z,59.15
2022-10-12T17:13:37.273Z,59.17
2022-10-12T17:16:27.353Z,59.67
2022-10-12T17:18:59.265Z,60.14
2022-10-12T17:21:27.496Z,60.86
2022-10-12T17:23:56.905Z,61.32
2022-10-12T17:26:24.696Z,61.20
2022-10-12T17:28:52.471Z,61.44
2022-10-12T17:31:21.669Z,61.86
2022-10-12T17:33:50.122Z,62.79
2022-10-12T17:36:18.006Z,63.16
2022-10-12T17:38:49.042Z,63.52
2022-10-12T17:41:16.884Z,63.86
2022-10-12T17:43:44.644Z,64.41
2022-10-12T17:46:12.365Z,64.46
2022-10-12T17:48:41.567Z,65.29
2022-10-12T17:51:12.575Z,65.91
2022-10-12T17:53:41.022Z,66.14
2022-10-12T17:56:11.196Z,66.23
2022-10-12T17:58:39.234Z,66.41
2022-10-12T18:01:09.197Z,66.52
2022-10-12T18:03:39.104Z,66.54
2022-10-12T18:06:11.229Z,66.97
2022-10-12T18:08:39.197Z,67.57
2022-10-12T18:11:08.017Z,68.07
2022-10-12T18:13:36.741Z,68.00
2022-10-12T18:16:05.450Z,68.43
2022-10-12T18:18:33.178Z,67.92
2022-10-12T18:21:01.024Z,68.29
2022-10-12T18:23:30.126Z,68.32
2022-10-12T18:25:57.874Z,69.20
2022-10-12T18:28:25.782Z,69.12
2022-10-12T18:30:53.720Z,69.18
2022-10-12T18:33:21.891Z,69.85
2022-10-12T18:35:49.709Z,69.88
2022-10-12T18:38:17.480Z,69.94
2022-10-12T18:40:47.799Z,70.15
2022-10-12T18:43:15.650Z,70.10
2022-10-12T18:45:43.601Z,71.34
2022-10-12T18:48:11.491Z,71.72
2022-10-12T18:50:39.797Z,71.54
2022-10-12T18:53:07.993Z,71.28
2022-10-12T18:55:37.874Z,71.55
2022-10-12T18:58:07.102Z,71.68
2022-10-12T19:00:34.934Z,72.06
2022-10-12T19:03:02.885Z,73.24
2022-10-12T19:05:30.676Z,73.15
2022-10-12T19:07:58.408Z,73.34
2022-10-12T19:10:26.200Z,73.40
2022-10-12T19:12:53.926Z,73.68
2022-10-12T19:15:23.363Z,73.33
2022-10-12T19:17:51.154Z,73.21
2022-10-12T19:20:18.907Z,73.66
2022-10-12T19:22:46.645Z,74.26
2022-10-12T19:25:14.401Z,74.35
2022-10-12T19:27:42.197Z,74.85
2022-10-12T19:30:10.562Z,74.72
2022-10-12T19:32:39.779Z,74.51
2022-10-12T19:35:08.006Z,75.23
2022-10-12T19:37:36.153Z,75.50
2022-10-12T19:40:07.770Z,75.62
2022-10-12T19:42:35.906Z,75.52
2022-10-12T19:45:03.717Z,75.22
2022-10-12T19:47:31.568Z,74.98
2022-10-12T19:50:01.542Z,75.79
2022-10-12T19:52:29.968Z,75.32
2022-10-12T19:54:57.777Z,74.85
2022-10-12T19:57:25.533Z,74.98
2022-10-12T19:59:53.272Z,74.89
2022-10-12T20:02:21.281Z,74.90
2022-10-12T20:04:53.766Z,75.34
2022-10-12T20:07:22.907Z,76.76
2022-10-12T20:09:50.675Z,77.11
2022-10-12T20:12:18.679Z,77.03
2022-10-12T20:14:46.752Z,76.47
2022-10-12T20:17:14.517Z,76.43
2022-10-12T20:19:42.231Z,75.48
2022-10-12T20:22:09.947Z,75.84
2022-10-12T20:24:39.065Z,75.10
2022-10-12T20:27:06.812Z,75.02
2022-10-12T20:29:34.805Z,75.00
2022-10-12T20:32:02.610Z,74.83
2022-10-12T20:34:30.362Z,75.11
2022-10-12T20:36:58.140Z,75.42
2022-10-12T20:39:25.972Z,75.83
2022-10-12T20:41:55.088Z,75.38
2022-10-12T20:44:22.849Z,74.77
2022-10-12T20:46:55.859Z,74.64
2022-10-12T20:49:23.587Z,75.81
2022-10-12T20:51:51.381Z,76.16
2022-10-12T20:54:19.162Z,76.73
2022-10-12T20:56:51.805Z,76.07
2022-10-12T20:59:20.949Z,75.49
2022-10-12T21:01:48.817Z,75.31
2022-10-12T21:04:16.554Z,75.64
2022-10-12T21:06:44.264Z,75.57
2022-10-12T21:09:14.170Z,75.94
2022-10-12T21:11:43.590Z,76.04
2022-10-12T21:14:12.782Z,76.10
2022-10-12T21:16:41.880Z,76.01
2022-10-12T21:19:09.609Z,76.45
2022-10-12T21:21:37.373Z,76.91
2022-10-12T21:24:05.538Z,76.84
2022-10-12T21:26:33.339Z,77.02
2022-10-12T21:29:01.183Z,76.95
2022-10-12T21:31:32.367Z,77.87
2022-10-12T21:34:03.645Z,77.29
2022-10-12T21:36:32.540Z,77.36
2022-10-12T21:39:00.299Z,77.04
2022-10-12T21:41:29.584Z,77.37
2022-10-12T21:43:58.472Z,77.26
2022-10-12T21:46:27.722Z,77.44
2022-10-12T21:48:55.655Z,77.98
2022-10-12T21:51:25.602Z,77.84
2022-10-12T21:53:53.901Z,77.77
2022-10-12T21:56:23.816Z,78.10
2022-10-12T21:58:52.749Z,78.51
2022-10-12T22:01:21.933Z,78.53
2022-10-12T22:03:53.676Z,78.64
2022-10-12T22:06:22.768Z,78.67
2022-10-12T22:08:54.183Z,79.32
2022-10-12T22:11:22.503Z,79.16
2022-10-12T22:13:50.510Z,79.26
2022-10-12T22:16:19.266Z,79.23
2022-10-12T22:18:47.190Z,79.31
2022-10-12T22:21:16.933Z,79.37
2022-10-12T22:23:45.642Z,79.35
2022-10-12T22:26:16.085Z,79.28
2022-10-12T22:28:54.228Z,79.72
2022-10-12T22:31:23.035Z,80.30
2022-10-12T22:33:50.748Z,79.70
2022-10-12T22:36:18.700Z,79.98
2022-10-12T22:38:46.456Z,80.04
2022-10-12T22:41:17.416Z,80.33
2022-10-12T22:43:48.159Z,80.03
2022-10-12T22:46:16.131Z,80.29
2022-10-12T22:48:43.974Z,80.85
2022-10-12T22:51:17.077Z,81.42
2022-10-12T22:53:44.899Z,81.12
2022-10-12T22:56:17.503Z,80.89
2022-10-12T22:58:46.665Z,80.59
2022-10-12T23:01:16.155Z,81.21
2022-10-12T23:03:44.036Z,81.15
2022-10-12T23:06:12.875Z,81.58
2022-10-12T23:08:41.209Z,81.72
2022-10-12T23:11:10.664Z,81.26
2022-10-12T23:13:40.526Z,81.47
2022-10-12T23:16:10.208Z,81.78
2022-10-12T23:18:38.989Z,81.40
2022-10-12T23:21:08.632Z,81.70
2022-10-12T23:23:37.214Z,81.51
2022-10-12T23:26:06.752Z,81.65
2022-10-12T23:28:34.884Z,81.19
2022-10-12T23:31:05.652Z,81.16
2022-10-12T23:33:33.649Z,81.49
2022-10-12T23:36:03.624Z,81.37
2022-10-12T23:38:33.301Z,81.30
2022-10-12T23:41:01.255Z,81.08
2022-10-12T23:43:29.222Z,81.15
2022-10-12T23:46:02.360Z,80.56
2022-10-12T23:48:31.581Z,80.80
2022-10-12T23:50:59.436Z,80.87
2022-10-12T23:53:27.317Z,80.40
2022-10-12T23:55:55.253Z,80.05
2022-10-12T23:58:23.086Z,79.79
